createdAt,value
2019-02-09T00:00:50.453Z,977.712
2019-02-09T00:02:50.458Z,977.697
2019-02-09T00:04:49.897Z,977.691
2019-02-09T00:06:50.054Z,977.698
2019-02-09T00:08:50.068Z,977.666
2019-02-09T00:10:50.103Z,977.667
2019-02-09T00:12:50.130Z,977.669
2019-02-09T00:14:50.163Z,977.669
2019-02-09T00:16:50.386Z,977.644
2019-02-09T00:18:50.324Z,977.644
2019-02-09T00:20:50.442Z,977.585
2019-02-09T00:22:50.423Z,977.580
2019-02-09T00:24:50.488Z,977.541
2019-02-09T00:26:49.613Z,977.539
2019-02-09T00:28:49.644Z,977.520
2019-02-09T00:30:49.641Z,977.502
2019-02-09T00:32:49.834Z,977.502
2019-02-09T00:34:50.234Z,977.466
2019-02-09T00:36:50.239Z,977.449
2019-02-09T00:38:50.397Z,977.413
2019-02-09T00:40:50.424Z,977.416
2019-02-09T00:42:50.597Z,977.427
2019-02-09T00:44:50.578Z,977.409
2019-02-09T00:46:49.706Z,977.419
2019-02-09T00:48:49.786Z,977.387
2019-02-09T00:50:49.963Z,977.326
2019-02-09T00:52:49.955Z,977.258
2019-02-09T00:54:49.980Z,977.178
2019-02-09T00:56:50.257Z,977.148
2019-02-09T00:58:50.362Z,977.115
2019-02-09T01:00:50.400Z,977.111
2019-02-09T01:02:50.317Z,977.122
2019-02-09T01:04:49.738Z,977.122
2019-02-09T01:06:49.947Z,977.079
2019-02-09T01:08:50.017Z,977.052
2019-02-09T01:10:50.086Z,977.052
2019-02-09T01:12:50.101Z,977.033
2019-02-09T01:14:50.103Z,977.009
2019-02-09T01:16:50.294Z,977.009
2019-02-09T01:18:50.324Z,976.968
2019-02-09T01:20:50.304Z,976.997
2019-02-09T01:22:50.326Z,976.985
2019-02-09T01:24:50.315Z,976.992
2019-02-09T01:26:50.497Z,976.993
2019-02-09T01:28:50.604Z,977.019
2019-02-09T01:30:49.736Z,977.002
2019-02-09T01:32:49.777Z,976.978
2019-02-09T01:34:50.128Z,976.967
2019-02-09T01:36:50.218Z,976.967
2019-02-09T05:50:49.876Z,976.091
2019-02-09T05:52:49.878Z,976.098
2019-02-09T05:54:49.998Z,976.086
2019-02-09T05:56:50.218Z,976.093
2019-02-09T05:58:50.217Z,976.093
2019-02-09T06:00:50.323Z,976.136
2019-02-09T06:02:50.333Z,976.164
2019-02-09T06:04:49.916Z,976.264
2019-02-09T06:06:50.229Z,976.273
2019-02-09T06:08:50.174Z,976.319
2019-02-09T06:10:50.275Z,976.361
2019-02-09T06:12:50.236Z,976.362
2019-02-09T06:14:50.243Z,976.361
2019-02-09T06:16:50.322Z,976.285
2019-02-09T06:18:50.390Z,976.271
2019-02-09T06:20:50.447Z,976.279
2019-02-09T06:22:50.474Z,976.304
2019-02-09T06:24:50.499Z,976.338
2019-02-09T06:26:49.796Z,976.333
2019-02-09T06:28:49.830Z,976.294
2019-02-09T06:30:49.856Z,976.274
2019-02-09T06:32:49.899Z,976.297
2019-02-09T06:34:50.187Z,976.298
2019-02-09T06:36:49.748Z,976.326
2019-02-09T06:38:49.834Z,976.380
2019-02-09T06:40:49.888Z,976.403
2019-02-09T06:42:49.931Z,976.465
2019-02-09T06:44:49.908Z,976.492
2019-02-09T06:46:50.104Z,976.537
2019-02-09T06:48:50.187Z,976.575
2019-02-09T06:50:50.275Z,976.595
2019-02-09T06:52:50.360Z,976.600
2019-02-09T06:54:50.387Z,976.574
2019-02-09T06:56:49.634Z,976.565
2019-02-09T06:58:49.662Z,976.592
2019-02-09T07:00:49.782Z,976.616
2019-02-09T07:02:49.785Z,976.679
2019-02-09T07:04:50.193Z,976.705
2019-02-09T07:06:50.316Z,976.764
2019-02-09T07:08:50.319Z,976.771
2019-02-09T07:10:50.342Z,976.803
2019-02-09T07:12:50.325Z,976.824
2019-02-09T07:14:50.453Z,976.820
2019-02-09T07:16:49.649Z,976.839
2019-02-09T07:18:49.698Z,976.907
2019-02-09T07:20:49.715Z,976.930
2019-02-09T07:22:49.753Z,976.967
2019-02-09T07:24:49.866Z,976.967
2019-02-09T07:26:50.058Z,976.989
2019-02-09T07:28:50.031Z,977.014
2019-02-09T07:30:50.016Z,977.052
2019-02-09T07:32:50.105Z,977.051
2019-02-09T07:34:50.546Z,977.065
2019-02-09T07:36:49.796Z,977.114
2019-02-09T07:38:49.873Z,977.143
2019-02-09T07:40:49.818Z,977.168
2019-02-09T07:42:49.852Z,977.203
2019-02-09T07:44:50.024Z,977.230
2019-02-09T07:46:50.159Z,977.248
2019-02-09T07:48:50.177Z,977.219
2019-02-09T07:50:50.206Z,977.198
2019-02-09T07:52:50.259Z,977.223
2019-02-09T07:54:50.309Z,977.250
2019-02-09T07:56:50.476Z,977.271
2019-02-09T07:58:50.489Z,977.276
2019-02-09T08:00:50.437Z,977.246
2019-02-09T08:02:50.543Z,977.262
2019-02-09T08:04:50.129Z,977.232
2019-02-09T08:06:50.294Z,977.206
2019-02-09T08:08:50.316Z,977.266
2019-02-09T08:10:50.295Z,977.297
2019-02-09T08:12:50.362Z,977.343
2019-02-09T08:14:50.405Z,977.329
2019-02-09T08:16:49.653Z,977.301
2019-02-09T08:18:49.692Z,977.274
2019-02-09T08:20:49.753Z,977.248
2019-02-09T08:22:49.817Z,977.220
2019-02-09T08:24:49.902Z,977.224
2019-02-09T08:26:50.060Z,977.202
2019-02-09T08:28:50.023Z,977.222
2019-02-09T08:30:50.014Z,977.263
2019-02-09T08:32:50.045Z,977.294
2019-02-09T08:34:50.531Z,977.276
2019-02-09T08:36:49.745Z,977.316
2019-02-09T08:38:49.791Z,977.333
2019-02-09T08:40:49.893Z,977.331
2019-02-09T08:42:49.931Z,977.400
2019-02-09T08:44:50.005Z,977.425
2019-02-09T08:46:50.120Z,977.482
2019-02-09T08:48:50.204Z,977.504
2019-02-09T08:50:50.294Z,977.517
2019-02-09T08:52:50.298Z,977.516
2019-02-09T08:54:50.300Z,977.511
2019-02-09T08:56:50.519Z,977.518
2019-02-09T08:58:49.663Z,977.561
2019-02-09T09:00:49.757Z,977.553
2019-02-09T09:02:49.764Z,977.562
2019-02-09T09:04:50.278Z,977.593
2019-02-09T09:06:50.428Z,977.631
2019-02-09T09:08:50.414Z,977.649
2019-02-09T09:10:50.379Z,977.675
2019-02-09T09:12:50.384Z,977.778
2019-02-09T09:14:50.562Z,977.812
2019-02-09T09:16:49.732Z,977.828
2019-02-09T09:18:49.887Z,977.814
2019-02-09T09:20:49.892Z,977.809
2019-02-09T09:22:49.863Z,977.825
2019-02-09T09:24:49.981Z,977.826
2019-02-09T09:26:50.109Z,977.896
2019-02-09T09:28:50.159Z,977.936
2019-02-09T09:30:50.141Z,977.936
2019-02-09T09:32:50.128Z,977.973
2019-02-09T09:34:50.513Z,977.997
2019-02-09T09:36:49.775Z,978.047
2019-02-09T09:38:49.881Z,978.060
2019-02-09T09:40:49.933Z,978.113
2019-02-09T09:42:49.995Z,978.131
2019-02-09T09:44:50.093Z,978.150
2019-02-09T09:46:50.244Z,978.166
2019-02-09T09:48:50.257Z,978.162
2019-02-09T09:50:50.235Z,978.161
2019-02-09T09:52:50.327Z,978.133
2019-02-09T09:54:50.382Z,978.089
2019-02-09T09:56:50.501Z,978.091
2019-02-09T09:58:49.674Z,978.097
2019-02-09T10:00:49.626Z,978.128
2019-02-09T10:02:49.617Z,978.168
2019-02-09T10:04:50.277Z,978.165
2019-02-09T10:06:50.387Z,978.125
2019-02-09T10:08:50.507Z,978.141
2019-02-09T10:10:50.516Z,978.141
2019-02-09T10:12:50.457Z,978.153
2019-02-09T10:14:50.575Z,978.182
2019-02-09T10:16:49.849Z,978.199
2019-02-09T10:18:49.863Z,978.225
2019-02-09T10:20:49.923Z,978.277
2019-02-09T10:22:49.902Z,978.285
2019-02-09T10:24:50.100Z,978.274
2019-02-09T10:26:50.313Z,978.265
2019-02-09T10:28:50.419Z,978.305
2019-02-09T10:30:50.396Z,978.312
2019-02-09T10:32:50.379Z,978.302
2019-02-09T10:34:49.873Z,978.308
2019-02-09T10:36:50.080Z,978.329
2019-02-09T10:38:50.022Z,978.353
2019-02-09T10:40:50.027Z,978.340
2019-02-09T10:42:49.964Z,978.376
2019-02-09T10:44:50.043Z,978.404
2019-02-09T10:46:50.278Z,978.409
2019-02-09T10:48:50.306Z,978.434
2019-02-09T10:50:50.339Z,978.451
2019-02-09T10:52:50.287Z,978.510
2019-02-09T10:54:50.353Z,978.450
2019-02-09T10:56:50.499Z,978.435
2019-02-09T10:58:49.680Z,978.410
2019-02-09T11:00:49.867Z,978.435
2019-02-09T11:02:52.537Z,978.418
2019-02-09T11:04:50.066Z,978.407
2019-02-09T11:06:50.277Z,978.314
2019-02-09T11:08:50.402Z,978.360
2019-02-09T11:10:50.385Z,978.338
2019-02-09T11:12:50.448Z,978.383
2019-02-09T11:14:50.502Z,978.397
2019-02-09T11:16:49.693Z,978.392
2019-02-09T11:18:49.864Z,978.388
2019-02-09T11:20:49.854Z,978.375
2019-02-09T11:22:49.927Z,978.382
2019-02-09T11:24:50.125Z,978.409
2019-02-09T11:26:50.412Z,978.389
2019-02-09T11:28:49.676Z,978.319
2019-02-09T11:30:49.833Z,978.353
2019-02-09T11:32:50.101Z,978.368
2019-02-09T11:34:49.629Z,978.334
2019-02-09T11:36:49.943Z,978.322
2019-02-09T11:38:50.146Z,978.459
2019-02-09T11:40:51.094Z,978.408
2019-02-09T11:42:50.121Z,978.448
2019-02-09T11:44:50.068Z,978.421
2019-02-09T11:46:50.219Z,978.465
2019-02-09T11:48:50.363Z,978.486
2019-02-09T11:50:50.375Z,978.499
2019-02-09T11:52:50.382Z,978.511
2019-02-09T11:54:49.767Z,978.502
2019-02-09T11:56:50.140Z,978.453
2019-02-09T11:58:50.354Z,978.480
2019-02-09T12:00:50.566Z,978.456
2019-02-09T12:02:49.824Z,978.526
2019-02-09T12:04:50.378Z,978.484
2019-02-09T12:06:49.801Z,978.481
2019-02-09T12:08:50.031Z,978.481
2019-02-09T12:10:50.155Z,978.526
2019-02-09T12:12:50.411Z,978.515
2019-02-09T12:14:49.661Z,978.479
2019-02-09T12:16:49.966Z,978.500
2019-02-09T12:18:50.149Z,978.479
2019-02-09T12:20:50.229Z,978.479
2019-02-09T12:22:50.474Z,978.457
2019-02-09T12:24:49.722Z,978.457
2019-02-09T12:26:50.093Z,978.492
2019-02-09T12:28:50.223Z,978.460
2019-02-09T12:30:50.601Z,978.399
2019-02-09T12:32:49.939Z,978.373
2019-02-09T12:34:50.555Z,978.363
2019-02-09T12:36:49.863Z,978.346
2019-02-09T12:38:49.995Z,978.420
2019-02-09T12:40:50.181Z,978.301
2019-02-09T12:42:50.356Z,978.296
2019-02-09T12:44:49.735Z,978.417
2019-02-09T12:46:50.136Z,978.374
2019-02-09T12:48:50.272Z,978.337
2019-02-09T12:50:50.558Z,978.337
2019-02-09T12:52:49.905Z,978.349
2019-02-09T12:54:50.069Z,978.365
2019-02-09T12:56:50.287Z,978.384
2019-02-09T12:58:50.542Z,978.403
2019-02-09T13:00:49.819Z,978.425
2019-02-09T13:02:50.135Z,978.435
2019-02-09T13:04:49.722Z,978.369
2019-02-09T13:06:50.032Z,978.344
2019-02-09T13:08:50.262Z,978.352
2019-02-09T13:10:50.474Z,978.373
2019-02-09T13:12:49.737Z,978.382
2019-02-09T13:14:49.986Z,978.415
2019-02-09T13:16:50.257Z,978.424
2019-02-09T13:18:50.453Z,978.442
2019-02-09T13:20:49.744Z,978.442
2019-02-09T13:22:49.948Z,978.392
2019-02-09T13:24:50.090Z,978.365
2019-02-09T13:26:50.407Z,978.394
2019-02-09T13:28:49.675Z,978.423
2019-02-09T13:30:49.839Z,978.502
2019-02-09T13:32:50.129Z,978.479
2019-02-09T13:34:49.720Z,978.438
2019-02-09T13:36:50.062Z,978.408
2019-02-09T13:38:50.252Z,978.420
2019-02-09T13:40:50.575Z,978.398
2019-02-09T13:42:49.760Z,978.366
2019-02-09T13:44:49.990Z,978.309
2019-02-09T13:46:50.227Z,978.282
2019-02-09T13:48:50.449Z,978.324
2019-02-09T13:50:49.689Z,978.250
2019-02-09T13:52:49.845Z,978.258
2019-02-09T13:54:50.050Z,978.255
2019-02-09T13:56:50.430Z,978.233
2019-02-09T13:58:49.626Z,978.221
2019-02-09T14:00:49.795Z,978.233
2019-02-09T14:02:50.010Z,978.198
2019-02-09T14:04:49.740Z,978.183
2019-02-09T14:06:50.069Z,978.143
2019-02-09T14:08:50.222Z,978.157
2019-02-09T14:10:50.378Z,978.181
2019-02-09T14:12:50.515Z,978.186
2019-02-09T14:14:49.796Z,978.159
2019-02-09T14:16:50.159Z,978.150
2019-02-09T14:18:50.452Z,978.195
2019-02-09T14:20:49.679Z,978.146
2019-02-09T14:22:49.857Z,978.123
2019-02-09T14:24:50.106Z,978.150
2019-02-09T14:26:50.403Z,978.190
2019-02-09T14:28:49.697Z,978.192
2019-02-09T14:30:49.827Z,978.204
2019-02-09T14:32:50.003Z,978.268
2019-02-09T14:34:49.622Z,978.264
2019-02-09T14:36:50.088Z,978.244
2019-02-09T14:38:50.336Z,978.222
2019-02-09T14:40:50.522Z,978.239
2019-02-09T14:42:49.751Z,978.247
2019-02-09T14:44:49.910Z,978.257
2019-02-09T14:46:50.179Z,978.262
2019-02-09T14:48:50.215Z,978.320
2019-02-09T14:50:50.156Z,978.331
2019-02-09T14:52:50.160Z,978.369
2019-02-09T14:54:50.169Z,978.369
2019-02-09T14:56:50.431Z,978.365
2019-02-09T14:58:50.529Z,978.366
2019-02-09T15:00:50.662Z,978.425
2019-02-09T15:02:54.271Z,978.402
2019-02-09T15:04:49.794Z,978.397
2019-02-09T15:06:50.123Z,978.397
2019-02-09T15:08:50.131Z,978.474
2019-02-09T15:10:50.109Z,978.480
2019-02-09T15:12:50.146Z,978.451
2019-02-09T15:14:50.157Z,978.504
2019-02-09T15:16:50.303Z,978.509
2019-02-09T15:18:50.284Z,978.519
2019-02-09T15:20:50.310Z,978.534
2019-02-09T15:22:50.332Z,978.511
2019-02-09T15:24:50.378Z,978.505
2019-02-09T15:26:50.577Z,978.501
2019-02-09T15:28:50.598Z,978.496
2019-02-09T15:30:49.759Z,978.488
2019-02-09T15:32:49.921Z,978.503
2019-02-09T15:34:50.346Z,978.550
2019-02-09T15:36:50.572Z,978.578
2019-02-09T15:38:50.518Z,978.645
2019-02-09T15:40:50.595Z,978.678
2019-02-09T15:42:49.720Z,978.659
2019-02-09T15:44:49.910Z,978.663
2019-02-09T15:46:50.139Z,978.707
2019-02-09T15:48:50.175Z,978.730
2019-02-09T15:50:50.169Z,978.705
2019-02-09T15:52:50.214Z,978.738
2019-02-09T15:54:50.263Z,978.721
2019-02-09T15:56:50.539Z,978.726
2019-02-09T15:58:50.461Z,978.738
2019-02-09T16:00:50.592Z,978.747
2019-02-09T16:02:49.629Z,978.747
2019-02-09T16:04:50.034Z,978.794
2019-02-09T16:06:50.138Z,978.782
2019-02-09T16:08:50.089Z,978.780
2019-02-09T16:10:50.231Z,978.784
2019-02-09T16:12:50.239Z,978.807
2019-02-09T16:14:50.337Z,978.779
2019-02-09T16:16:50.523Z,978.776
2019-02-09T16:18:50.581Z,978.752
2019-02-09T16:20:49.647Z,978.771
2019-02-09T16:22:49.701Z,978.736
2019-02-09T16:24:49.716Z,978.694
2019-02-09T16:26:49.975Z,978.706
2019-02-09T16:28:50.008Z,978.703
2019-02-09T16:30:50.067Z,978.750
2019-02-09T16:32:50.095Z,978.750
2019-02-09T16:34:51.518Z,978.790
2019-02-09T16:36:50.613Z,978.814
2019-02-09T16:38:50.585Z,978.814
2019-02-09T16:40:50.591Z,978.968
2019-02-09T16:42:49.857Z,979.032
2019-02-09T16:44:49.778Z,979.090
2019-02-09T16:46:50.035Z,979.090
2019-02-09T16:48:50.103Z,979.146
2019-02-09T16:50:50.083Z,979.156
2019-02-09T16:52:50.214Z,979.156
2019-02-09T16:54:50.227Z,979.150
2019-02-09T16:56:50.624Z,979.135
2019-02-09T16:58:49.667Z,979.122
2019-02-09T17:00:49.760Z,979.139
2019-02-09T17:02:49.749Z,979.165
2019-02-09T17:04:50.297Z,979.179
2019-02-09T17:06:50.507Z,979.189
2019-02-09T17:08:50.503Z,979.183
2019-02-09T17:10:49.608Z,979.177
2019-02-09T17:12:49.624Z,979.180
2019-02-09T17:14:49.730Z,979.206
2019-02-09T17:16:49.990Z,979.197
2019-02-09T17:18:50.026Z,979.255
2019-02-09T17:20:50.080Z,979.294
2019-02-09T17:22:51.930Z,979.373
2019-02-09T17:24:49.955Z,979.441
2019-02-09T17:26:50.163Z,979.505
2019-02-09T17:28:50.166Z,979.662
2019-02-09T17:30:50.230Z,979.739
2019-02-09T17:32:50.244Z,979.802
2019-02-09T17:34:49.761Z,980.000
2019-02-09T17:36:50.064Z,980.041
2019-02-09T17:38:50.030Z,980.022
2019-02-09T17:40:50.004Z,979.943
2019-02-09T17:42:53.760Z,979.941
2019-02-09T17:44:49.710Z,979.941
2019-02-09T17:46:49.870Z,979.996
2019-02-09T17:48:49.889Z,979.986
2019-02-09T17:50:49.859Z,980.011
2019-02-09T17:52:49.867Z,980.074
2019-02-09T17:54:49.906Z,980.100
2019-02-09T17:56:50.202Z,980.135
2019-02-09T17:58:50.159Z,980.196
2019-02-09T18:00:50.217Z,980.227
2019-02-09T18:02:50.248Z,980.244
2019-02-09T18:04:49.720Z,980.289
2019-02-09T18:06:49.961Z,980.272
2019-02-09T18:08:49.960Z,980.264
2019-02-09T18:10:50.036Z,980.266
2019-02-09T18:12:50.033Z,980.245
2019-02-09T18:14:50.013Z,980.231
2019-02-09T18:16:50.203Z,980.230
2019-02-09T18:18:50.167Z,980.233
2019-02-09T18:20:50.221Z,980.238
2019-02-09T18:22:50.254Z,980.206
2019-02-09T18:24:50.213Z,980.224
2019-02-09T18:26:50.415Z,980.198
2019-02-09T18:28:50.459Z,980.211
2019-02-09T18:30:50.492Z,980.267
2019-02-09T18:32:50.442Z,980.292
2019-02-09T18:34:56.483Z,980.302
2019-02-09T18:36:50.625Z,980.331
2019-02-09T18:38:49.735Z,980.324
2019-02-09T18:40:49.775Z,980.303
2019-02-09T18:42:49.781Z,980.296
2019-02-09T18:44:49.809Z,980.253
2019-02-09T18:46:50.090Z,980.215
2019-02-09T18:48:50.142Z,980.170
2019-02-09T18:50:50.230Z,980.167
2019-02-09T18:52:50.268Z,980.161
2019-02-09T18:54:50.267Z,980.161
2019-02-09T18:56:50.542Z,980.222
2019-02-09T18:58:50.566Z,980.170
2019-02-09T19:00:50.568Z,980.127
2019-02-09T19:02:49.608Z,980.125
2019-02-09T19:04:50.011Z,980.124
2019-02-09T19:06:50.120Z,980.124
2019-02-09T19:08:50.088Z,980.142
2019-02-09T19:10:50.172Z,980.106
2019-02-09T19:12:50.145Z,980.101
2019-02-09T19:14:50.164Z,980.083
2019-02-09T19:16:50.275Z,980.079
2019-02-09T19:18:50.287Z,980.059
2019-02-09T19:20:50.326Z,980.051
2019-02-09T19:22:50.329Z,980.045
2019-02-09T19:24:50.422Z,980.052
2019-02-09T19:26:49.643Z,980.072
2019-02-09T19:28:49.713Z,980.071
2019-02-09T19:30:49.718Z,980.073
2019-02-09T19:32:49.834Z,980.061
2019-02-09T19:34:50.328Z,980.026
2019-02-09T19:36:50.456Z,980.033
2019-02-09T19:38:50.486Z,980.038
2019-02-09T19:40:50.434Z,980.031
2019-02-09T19:42:50.490Z,980.044
2019-02-09T19:44:49.659Z,980.052
2019-02-09T19:46:49.960Z,980.024
2019-02-09T19:48:49.959Z,980.020
2019-02-09T19:50:49.967Z,980.019
2019-02-09T19:52:49.982Z,980.019
2019-02-09T19:54:49.986Z,980.065
2019-02-09T19:56:50.139Z,980.062
2019-02-09T19:58:50.116Z,980.040
2019-02-09T20:00:50.165Z,980.036
2019-02-09T20:02:50.230Z,980.060
2019-02-09T20:04:49.754Z,980.079
2019-02-09T20:06:50.109Z,980.079
2019-02-09T20:08:50.142Z,980.105
2019-02-09T20:10:50.184Z,980.136
2019-02-09T20:12:50.192Z,980.152
2019-02-09T20:14:50.247Z,980.176
2019-02-09T20:16:50.440Z,980.199
2019-02-09T20:18:52.060Z,980.245
2019-02-09T20:20:50.067Z,980.258
2019-02-09T20:22:50.081Z,980.273
2019-02-09T20:24:50.096Z,980.307
2019-02-09T20:26:50.236Z,980.332
2019-02-09T20:28:50.331Z,980.326
2019-02-09T20:30:50.375Z,980.311
2019-02-09T20:32:50.547Z,980.321
2019-02-09T20:34:50.012Z,980.315
2019-02-09T20:36:50.262Z,980.269
2019-02-09T20:38:50.400Z,980.269
2019-02-09T20:40:50.558Z,980.226
2019-02-09T20:42:49.764Z,980.206
2019-02-09T20:44:49.862Z,980.190
2019-02-09T20:46:50.040Z,980.201
2019-02-09T20:48:50.162Z,980.173
2019-02-09T20:50:50.336Z,980.161
2019-02-09T20:52:50.403Z,980.130
2019-02-09T20:54:50.805Z,980.096
2019-02-09T20:56:49.788Z,980.063
2019-02-09T20:58:50.185Z,980.043
2019-02-09T21:00:50.538Z,980.006
2019-02-09T21:02:50.326Z,980.002
2019-02-09T21:04:50.342Z,979.954
2019-02-09T21:06:49.953Z,979.941
2019-02-09T21:08:50.113Z,979.932
2019-02-09T21:10:50.708Z,979.930
2019-02-09T21:12:50.021Z,979.930
2019-02-09T21:14:50.186Z,979.979
2019-02-09T21:16:52.080Z,979.990
2019-02-09T21:18:50.316Z,980.046
2019-02-09T21:20:50.537Z,980.070
2019-02-09T21:22:49.924Z,980.099
2019-02-09T21:24:50.080Z,980.175
2019-02-09T21:26:50.332Z,980.191
2019-02-09T21:28:50.452Z,980.227
2019-02-09T21:30:50.579Z,980.249
2019-02-09T21:32:49.818Z,980.264
2019-02-09T21:34:50.202Z,980.276
2019-02-09T21:36:50.475Z,980.276
2019-02-09T21:38:49.689Z,980.246
2019-02-09T21:40:49.754Z,980.250
2019-02-09T21:42:49.833Z,980.249
2019-02-09T21:44:50.004Z,980.240
2019-02-09T21:46:50.334Z,980.246
2019-02-09T21:48:50.560Z,980.257
2019-02-09T21:50:49.776Z,980.272
2019-02-09T21:52:50.084Z,980.237
2019-02-09T21:54:50.425Z,980.182
2019-02-09T21:56:49.719Z,980.138
2019-02-09T21:58:50.041Z,980.143
2019-02-09T22:00:50.192Z,980.160
2019-02-09T22:02:50.290Z,980.176
2019-02-09T22:04:49.947Z,980.172
2019-02-09T22:06:50.306Z,980.154
2019-02-09T22:08:50.451Z,980.137
2019-02-09T22:10:49.820Z,980.148
2019-02-09T22:12:50.315Z,980.117
2019-02-09T22:14:50.263Z,980.069
2019-02-09T22:16:49.944Z,980.081
2019-02-09T22:18:51.090Z,980.096
2019-02-09T22:20:53.207Z,980.103
2019-02-09T22:22:50.422Z,980.087
2019-02-09T22:24:49.782Z,980.070
2019-02-09T22:26:50.366Z,980.076
2019-02-09T22:28:49.773Z,980.074
2019-02-09T22:30:50.117Z,980.074
2019-02-09T22:32:50.704Z,980.046
2019-02-09T22:34:49.657Z,980.047
2019-02-09T22:36:50.174Z,980.059
2019-02-09T22:38:50.613Z,980.055
2019-02-09T22:40:49.817Z,980.042
2019-02-09T22:42:50.039Z,980.029
2019-02-09T22:44:50.392Z,980.037
2019-02-09T22:46:49.749Z,980.068
2019-02-09T22:48:50.080Z,980.065
2019-02-09T22:50:50.272Z,980.066
2019-02-09T22:52:50.464Z,980.025
2019-02-09T22:54:49.658Z,980.025
2019-02-09T22:56:49.948Z,979.993
2019-02-09T22:58:50.130Z,979.988
2019-02-09T23:00:50.261Z,980.018
2019-02-09T23:02:50.250Z,980.036
2019-02-09T23:04:49.744Z,980.048
2019-02-09T23:06:53.175Z,980.044
2019-02-09T23:08:50.189Z,980.021
2019-02-09T23:10:50.370Z,979.981
2019-02-09T23:12:50.392Z,979.937
2019-02-09T23:14:50.456Z,979.888
2019-02-09T23:16:49.740Z,979.876
2019-02-09T23:18:49.962Z,979.916
2019-02-09T23:20:50.010Z,979.916
2019-02-09T23:22:50.102Z,979.972
2019-02-09T23:24:50.146Z,979.969
2019-02-09T23:26:50.380Z,979.948
2019-02-09T23:28:49.634Z,979.904
2019-02-09T23:30:49.640Z,979.888
2019-02-09T23:32:49.880Z,979.871
2019-02-09T23:34:50.452Z,979.842
2019-02-09T23:36:49.830Z,979.803
2019-02-09T23:38:50.036Z,979.813
2019-02-09T23:40:50.136Z,979.824
2019-02-09T23:42:50.261Z,979.797
2019-02-09T23:44:50.414Z,979.794
2019-02-09T23:46:49.772Z,979.791
2019-02-09T23:48:49.870Z,979.787
2019-02-09T23:50:49.895Z,979.710
2019-02-09T23:52:50.046Z,979.676
2019-02-09T23:54:50.138Z,979.626
2019-02-09T23:56:50.407Z,979.620
2019-02-09T23:58:50.528Z,979.609
